Time;durP1;ratioP1;P1;durP2;ratioP2;P2;SDS_P1;SDS_P2;PMS_P1;PMS_P2;Temp;Humidity;BMP_temperature;BMP_pressure;BME280_temperature;BME280_humidity;BME280_pressure;Samples;Min_cycle;Max_cycle;Signal;HPM_P1;HPM_P2
2022/10/19 00:00:16;;;;;;;3.50;1.58;;;10.90;99.90;;;;;;5071389;28;20044;-69
2022/10/19 00:02:42;;;;;;;3.15;1.33;;;10.90;99.90;;;;;;5059165;28;20486;-71
2022/10/19 00:05:08;;;;;;;1.30;1.20;;;10.70;99.90;;;;;;5051662;28;20518;-74
2022/10/19 00:07:33;;;;;;;5.15;1.75;;;10.70;99.90;;;;;;5050030;28;20044;-73
2022/10/19 00:09:59;;;;;;;7.35;1.77;;;10.60;99.90;;;;;;5059626;28;20083;-69
2022/10/19 00:12:25;;;;;;;3.25;1.60;;;10.60;99.90;;;;;;5071236;28;20114;-69
2022/10/19 00:14:50;;;;;;;3.22;1.40;;;10.60;99.90;;;;;;5071771;28;20114;-69
2022/10/19 00:17:16;;;;;;;1.70;1.20;;;10.50;99.90;;;;;;5070766;28;20056;-71
2022/10/19 00:19:42;;;;;;;0.80;0.80;;;10.40;99.90;;;;;;5071291;28;20049;-69
2022/10/19 00:22:07;;;;;;;7.25;1.10;;;10.30;99.90;;;;;;5070970;28;20543;-74
2022/10/19 00:24:33;;;;;;;4.63;0.98;;;10.20;99.90;;;;;;5069726;28;20119;-70
2022/10/19 00:26:59;;;;;;;1.70;0.90;;;10.10;99.90;;;;;;5070487;28;20086;-71
2022/10/19 00:29:24;;;;;;;0.85;0.85;;;10.10;99.90;;;;;;5059290;28;20044;-68
2022/10/19 00:31:50;;;;;;;3.85;0.95;;;10.00;99.90;;;;;;5071503;28;20037;-68
2022/10/19 00:34:16;;;;;;;2.65;1.23;;;9.90;99.90;;;;;;5070096;28;20083;-68
2022/10/19 00:36:42;;;;;;;3.30;1.20;;;9.80;99.90;;;;;;5071231;28;20383;-70
2022/10/19 00:39:12;;;;;;;7.93;1.85;;;9.70;99.90;;;;;;5069005;28;20159;-68
2022/10/19 00:41:38;;;;;;;5.50;1.25;;;9.80;99.90;;;;;;5070925;28;20402;-69
2022/10/19 00:44:26;;;;;;;2.58;1.50;;;9.80;99.90;;;;;;5070882;28;20049;-69
2022/10/19 00:46:52;;;;;;;4.28;1.48;;;9.70;99.90;;;;;;5071090;28;20048;-69
2022/10/19 00:49:22;;;;;;;;;;;9.70;99.90;;;;;;5070100;28;20570;-70
2022/10/19 00:51:54;;;;;;;3.92;1.77;;;9.70;99.90;;;;;;5071131;28;19950;-68
2022/10/19 00:54:20;;;;;;;5.93;1.60;;;9.70;99.90;;;;;;5068206;28;20056;-68
2022/10/19 00:56:47;;;;;;;;;;;9.70;99.90;;;;;;5064815;28;20056;-69
2022/10/19 00:59:17;;;;;;;4.75;2.45;;;9.60;99.90;;;;;;5070402;28;19921;-74
2022/10/19 01:01:45;;;;;;;5.82;1.77;;;9.70;99.90;;;;;;5070931;28;20048;-69
2022/10/19 01:04:12;;;;;;;3.45;1.40;;;9.60;99.90;;;;;;5069495;28;20084;-73
2022/10/19 01:06:39;;;;;;;3.67;1.88;;;9.60;99.90;;;;;;5070276;28;20040;-69
2022/10/19 01:09:05;;;;;;;5.65;1.90;;;9.60;99.90;;;;;;5068502;28;20052;-69
2022/10/19 01:11:55;;;;;;;4.28;1.50;;;9.70;99.90;;;;;;5068528;28;20416;-68
2022/10/19 01:14:30;;;;;;;4.85;1.42;;;9.70;99.90;;;;;;5070325;28;20108;-69
2022/10/19 01:17:14;;;;;;;5.00;1.90;;;9.70;99.90;;;;;;5069986;28;20045;-68
2022/10/19 01:20:03;;;;;;;5.38;1.50;;;9.70;99.90;;;;;;5069983;28;20043;-69
2022/10/19 01:22:53;;;;;;;4.60;1.60;;;9.70;99.90;;;;;;5051004;28;20082;-70
2022/10/19 01:25:34;;;;;;;2.78;1.52;;;9.70;99.90;;;;;;5060883;28;20048;-71
2022/10/19 01:28:27;;;;;;;3.42;1.20;;;9.70;99.90;;;;;;5070514;28;20079;-69
2022/10/19 01:31:01;;;;;;;4.43;1.50;;;9.70;99.90;;;;;;5069476;28;20071;-70
2022/10/19 01:34:05;;;;;;;2.50;0.88;;;9.70;99.90;;;;;;5058680;28;20067;-69
2022/10/19 01:36:55;;;;;;;4.13;1.50;;;9.60;99.90;;;;;;5007647;28;20137;-68
2022/10/19 01:39:37;;;;;;;6.28;2.40;;;9.60;99.90;;;;;;5045688;28;20064;-69
2022/10/19 01:42:10;;;;;;;9.90;2.03;;;9.60;99.90;;;;;;5050671;28;20049;-71
2022/10/19 01:44:51;;;;;;;9.75;1.90;;;9.60;99.90;;;;;;5089526;28;20045;-71
2022/10/19 01:47:25;;;;;;;3.10;1.70;;;9.70;99.90;;;;;;5049931;28;20111;-74
2022/10/19 01:50:17;;;;;;;7.57;2.08;;;9.80;99.90;;;;;;5050150;28;20048;-69
2022/10/19 01:52:43;;;;;;;8.70;1.80;;;9.80;99.90;;;;;;5048734;28;20048;-73
2022/10/19 01:55:12;;;;;;;3.35;2.15;;;9.80;99.90;;;;;;5058926;28;20048;-70
2022/10/19 01:57:44;;;;;;;5.57;1.80;;;9.90;99.90;;;;;;5069521;28;20056;-68
2022/10/19 02:00:12;;;;;;;5.70;1.80;;;9.90;99.90;;;;;;5060738;28;20079;-70
2022/10/19 02:02:44;;;;;;;6.35;1.80;;;9.90;99.90;;;;;;5049389;28;20257;-69
2022/10/19 02:05:11;;;;;;;2.55;1.70;;;10.00;99.90;;;;;;5067393;28;20040;-71
2022/10/19 02:07:37;;;;;;;3.35;1.75;;;10.00;99.90;;;;;;5053545;28;20041;-69
2022/10/19 02:10:03;;;;;;;5.88;2.10;;;10.00;99.90;;;;;;5052176;28;20049;-69
2022/10/19 02:12:31;;;;;;;4.85;1.98;;;10.10;99.90;;;;;;5066244;28;20064;-69
2022/10/19 02:15:00;;;;;;;8.00;1.75;;;10.20;99.90;;;;;;5071950;28;20055;-68
2022/10/19 02:17:32;;;;;;;4.25;2.15;;;10.20;99.90;;;;;;5073210;28;20044;-69
2022/10/19 02:19:59;;;;;;;3.80;2.10;;;10.30;99.90;;;;;;5073932;28;20048;-70
2022/10/19 02:22:25;;;;;;;5.10;2.08;;;10.30;99.90;;;;;;5072268;28;20044;-69
2022/10/19 02:24:50;;;;;;;4.30;1.60;;;10.30;99.90;;;;;;5072701;28;20070;-69
2022/10/19 02:27:17;;;;;;;5.88;2.30;;;10.30;99.90;;;;;;5073574;28;20402;-69
2022/10/19 02:29:43;;;;;;;11.15;2.13;;;10.30;99.90;;;;;;5066490;28;20357;-69
2022/10/19 02:32:10;;;;;;;4.63;2.13;;;10.30;99.90;;;;;;5052440;28;20487;-70
2022/10/19 02:34:38;;;;;;;6.47;1.80;;;10.20;99.90;;;;;;5052884;28;20041;-68
2022/10/19 02:37:05;;;;;;;4.15;1.90;;;10.20;99.90;;;;;;5053108;28;20049;-74
2022/10/19 02:39:31;;;;;;;6.72;2.03;;;10.20;99.90;;;;;;5051497;28;20048;-68
2022/10/19 02:42:15;;;;;;;15.05;2.63;;;10.20;99.90;;;;;;5071076;28;20052;-68
2022/10/19 02:45:11;;;;;;;8.43;2.20;;;10.20;99.90;;;;;;5073002;28;20516;-68
2022/10/19 02:47:43;;;;;;;3.85;1.75;;;10.20;99.90;;;;;;5061368;28;20063;-68
2022/10/19 02:50:10;;;;;;;5.32;1.98;;;10.20;99.90;;;;;;5073363;28;20075;-70
2022/10/19 02:52:37;;;;;;;6.07;1.92;;;10.20;99.90;;;;;;5070260;28;20080;-72
2022/10/19 02:55:03;;;;;;;9.65;2.17;;;10.20;99.90;;;;;;5072597;28;20058;-69
2022/10/19 02:57:31;;;;;;;2.20;1.58;;;10.30;99.90;;;;;;5072688;28;20040;-69
2022/10/19 02:59:57;;;;;;;8.90;2.58;;;10.30;99.90;;;;;;5073361;28;20044;-69
2022/10/19 03:02:23;;;;;;;4.32;2.03;;;10.30;99.90;;;;;;5072709;28;20106;-74
2022/10/19 03:04:49;;;;;;;3.90;2.10;;;10.30;99.90;;;;;;5072685;28;20036;-72
2022/10/19 03:07:17;;;;;;;6.85;2.10;;;10.30;99.90;;;;;;5058593;28;20494;-70
2022/10/19 03:09:43;;;;;;;3.83;1.70;;;10.30;99.90;;;;;;5051096;28;20041;-69
2022/10/19 03:12:09;;;;;;;;;;;10.30;99.90;;;;;;5053481;28;20140;-68
2022/10/19 03:14:34;;;;;;;3.58;1.73;;;10.20;99.90;;;;;;5052249;28;20418;-69
2022/10/19 03:17:00;;;;;;;5.18;1.90;;;10.10;99.90;;;;;;5052546;28;20041;-72
2022/10/19 03:19:26;;;;;;;3.45;1.50;;;10.10;99.90;;;;;;5057724;28;20044;-75
2022/10/19 03:21:51;;;;;;;5.97;2.55;;;10.10;99.90;;;;;;5072685;28;20051;-69
2022/10/19 03:24:17;;;;;;;7.25;2.33;;;10.10;99.90;;;;;;5070550;28;20492;-70
2022/10/19 03:26:43;;;;;;;7.93;2.58;;;10.20;99.90;;;;;;5070545;28;20071;-70
2022/10/19 03:29:08;;;;;;;9.43;2.28;;;10.20;99.90;;;;;;5072940;28;20441;-71
2022/10/19 03:31:34;;;;;;;4.43;2.67;;;10.20;99.90;;;;;;5070657;28;20041;-69
2022/10/19 03:34:00;;;;;;;5.88;1.70;;;10.20;99.90;;;;;;5069864;28;20136;-69
2022/10/19 03:36:32;;;;;;;7.80;1.73;;;10.30;99.90;;;;;;5068343;28;20126;-75
2022/10/19 03:39:00;;;;;;;4.30;1.70;;;10.20;99.90;;;;;;5057174;28;20053;-69
2022/10/19 03:41:28;;;;;;;5.70;2.40;;;10.20;99.90;;;;;;5071728;28;20037;-74
2022/10/19 03:43:54;;;;;;;5.03;1.80;;;10.20;99.90;;;;;;5072359;28;20051;-72
2022/10/19 03:46:20;;;;;;;6.13;1.63;;;10.20;99.90;;;;;;5071924;28;20048;-69
2022/10/19 03:48:46;;;;;;;5.60;2.53;;;10.10;99.90;;;;;;5071324;28;20240;-69
2022/10/19 03:51:17;;;;;;;;;;;10.10;99.90;;;;;;5070721;28;20128;-70
2022/10/19 03:53:43;;;;;;;4.07;1.65;;;10.10;99.90;;;;;;5069815;28;19936;-69
2022/10/19 03:56:14;;;;;;;4.32;1.98;;;10.10;99.90;;;;;;5068084;28;20051;-75
2022/10/19 03:58:41;;;;;;;3.00;1.58;;;10.00;99.90;;;;;;5070027;28;20123;-69
2022/10/19 04:01:12;;;;;;;2.42;1.50;;;9.90;99.90;;;;;;5070821;28;20040;-70
2022/10/19 04:03:38;;;;;;;2.47;1.20;;;9.90;99.90;;;;;;5066678;28;20044;-69
2022/10/19 04:06:07;;;;;;;9.38;1.88;;;9.80;99.90;;;;;;5066960;28;20478;-69
2022/10/19 04:08:33;;;;;;;3.80;1.33;;;9.80;99.90;;;;;;5059620;28;20048;-70
2022/10/19 04:11:03;;;;;;;4.45;1.77;;;9.80;99.90;;;;;;5070799;28;20644;-70
2022/10/19 04:13:30;;;;;;;3.15;1.10;;;9.80;99.90;;;;;;5071135;28;20060;-75
2022/10/19 04:15:56;;;;;;;2.15;1.50;;;9.70;99.90;;;;;;5070618;28;20040;-69
2022/10/19 04:18:22;;;;;;;2.42;1.60;;;9.70;99.90;;;;;;5069598;28;20094;-70
2022/10/19 04:20:47;;;;;;;6.90;1.98;;;9.70;99.90;;;;;;5070837;28;20489;-72
2022/10/19 04:23:13;;;;;;;2.10;1.40;;;9.70;99.90;;;;;;5069274;28;20131;-69
2022/10/19 04:25:39;;;;;;;6.93;1.65;;;9.70;99.90;;;;;;5070657;28;20044;-71
2022/10/19 04:28:05;;;;;;;5.78;2.20;;;9.70;99.90;;;;;;5071512;28;20049;-69
2022/10/19 04:30:30;;;;;;;10.75;1.70;;;9.70;99.90;;;;;;5070697;28;20040;-75
2022/10/19 04:32:56;;;;;;;4.25;1.60;;;9.70;99.90;;;;;;5070735;28;20060;-70
2022/10/19 04:35:22;;;;;;;5.07;2.28;;;9.70;99.90;;;;;;5068079;28;20485;-69
2022/10/19 04:37:47;;;;;;;6.47;2.38;;;9.70;99.90;;;;;;5067948;28;20155;-73
2022/10/19 04:40:13;;;;;;;4.00;1.70;;;9.80;99.90;;;;;;5067895;28;20076;-69
2022/10/19 04:42:39;;;;;;;8.07;1.63;;;9.70;99.90;;;;;;5058573;28;20048;-69
2022/10/19 04:45:05;;;;;;;4.05;2.08;;;9.80;99.90;;;;;;5066927;28;20044;-70
2022/10/19 04:47:30;;;;;;;2.13;1.45;;;9.80;99.90;;;;;;5069478;28;20044;-74
2022/10/19 04:49:56;;;;;;;5.97;1.80;;;9.80;99.90;;;;;;5069798;28;20047;-71
2022/10/19 04:52:22;;;;;;;4.65;1.48;;;9.70;99.90;;;;;;5070145;28;20052;-70
2022/10/19 04:54:47;;;;;;;7.65;2.10;;;9.70;99.90;;;;;;5066209;28;20063;-69
2022/10/19 04:57:13;;;;;;;4.50;1.52;;;9.70;99.90;;;;;;5070205;28;20051;-69
2022/10/19 04:59:38;;;;;;;5.93;1.60;;;9.80;99.90;;;;;;5068616;28;20098;-69
2022/10/19 05:02:04;;;;;;;4.85;1.70;;;9.70;99.90;;;;;;5055046;28;20124;-72
2022/10/19 05:04:30;;;;;;;5.72;1.60;;;9.70;99.90;;;;;;5058603;28;20129;-74
2022/10/19 05:06:55;;;;;;;3.00;1.90;;;9.70;99.90;;;;;;5062517;28;20090;-69
2022/10/19 05:09:21;;;;;;;4.78;1.70;;;9.70;99.90;;;;;;5049344;28;20052;-70
2022/10/19 05:11:49;;;;;;;5.60;1.42;;;9.70;99.90;;;;;;5049915;28;20061;-69
2022/10/19 05:14:15;;;;;;;7.80;1.90;;;9.80;99.90;;;;;;5050773;28;20053;-69
2022/10/19 05:16:41;;;;;;;5.00;2.00;;;9.80;99.90;;;;;;5050148;28;20064;-69
2022/10/19 05:19:06;;;;;;;5.38;1.75;;;9.80;99.90;;;;;;5065940;28;20127;-69
2022/10/19 05:21:32;;;;;;;8.82;1.77;;;9.80;99.90;;;;;;5067448;28;20083;-74
2022/10/19 05:23:58;;;;;;;7.45;1.85;;;9.80;99.90;;;;;;5068227;28;20048;-69
2022/10/19 05:26:27;;;;;;;3.75;1.48;;;9.90;99.90;;;;;;5070857;28;20141;-69
2022/10/19 05:28:56;;;;;;;9.07;1.60;;;9.80;99.90;;;;;;5069841;28;20053;-69
2022/10/19 05:31:24;;;;;;;6.28;1.80;;;9.80;99.90;;;;;;5050781;28;20490;-69
2022/10/19 05:33:50;;;;;;;5.97;1.90;;;9.90;99.90;;;;;;5049353;28;20049;-67
2022/10/19 05:36:19;;;;;;;5.75;2.65;;;9.90;99.90;;;;;;5050582;28;20052;-66
2022/10/19 05:38:47;;;;;;;5.68;1.60;;;9.80;99.90;;;;;;5047646;28;20045;-68
2022/10/19 05:41:13;;;;;;;4.95;1.30;;;9.90;99.90;;;;;;5066978;28;20052;-67
2022/10/19 05:43:39;;;;;;;;;;;9.90;99.90;;;;;;5057709;28;20056;-70
2022/10/19 05:46:07;;;;;;;7.95;1.55;;;9.90;99.90;;;;;;5067589;28;19925;-67
2022/10/19 05:48:34;;;;;;;4.43;1.40;;;9.90;99.90;;;;;;5069975;28;20078;-68
2022/10/19 05:51:01;;;;;;;7.97;1.77;;;9.90;99.90;;;;;;5106048;28;20145;-67
2022/10/19 05:53:28;;;;;;;3.92;1.27;;;9.90;99.90;;;;;;5071584;28;20052;-67
2022/10/19 05:55:54;;;;;;;6.13;1.27;;;9.80;99.90;;;;;;5073678;28;20431;-66
2022/10/19 05:58:20;;;;;;;2.83;1.50;;;9.80;99.90;;;;;;5074301;28;20555;-66
2022/10/19 06:00:57;;;;;;;7.05;1.40;;;9.80;99.90;;;;;;5063038;28;20763;-67
2022/10/19 06:03:24;;;;;;;6.70;1.80;;;9.80;99.90;;;;;;5066669;28;20071;-68
2022/10/19 06:05:51;;;;;;;10.57;1.73;;;9.80;99.90;;;;;;5065247;28;20138;-66
2022/10/19 06:08:17;;;;;;;6.00;1.38;;;9.80;99.90;;;;;;5051995;28;20048;-66
2022/10/19 06:10:44;;;;;;;5.55;1.30;;;9.80;99.90;;;;;;5053129;28;20056;-67
2022/10/19 06:13:11;;;;;;;7.20;1.35;;;9.80;99.90;;;;;;5054050;28;20132;-67
2022/10/19 06:15:39;;;;;;;11.18;1.70;;;9.80;99.90;;;;;;5053828;28;20052;-72
2022/10/19 06:18:13;;;;;;;6.40;1.30;;;9.80;99.90;;;;;;5053396;28;20056;-67
2022/10/19 06:20:41;;;;;;;5.43;1.30;;;9.90;99.90;;;;;;5057273;28;20036;-72
2022/10/19 06:23:08;;;;;;;7.60;2.28;;;9.80;99.90;;;;;;5067368;28;20052;-68
2022/10/19 06:25:34;;;;;;;9.10;1.40;;;9.90;99.90;;;;;;5053512;28;20505;-67
2022/10/19 06:28:01;;;;;;;11.60;2.53;;;9.90;99.90;;;;;;5053021;28;20044;-67
2022/10/19 06:30:27;;;;;;;8.10;1.27;;;9.90;99.90;;;;;;5065565;28;20059;-67
2022/10/19 06:32:53;;;;;;;8.88;1.67;;;9.90;99.90;;;;;;5072426;28;20832;-67
2022/10/19 06:35:18;;;;;;;10.25;1.33;;;9.90;99.90;;;;;;5073690;28;20067;-67
2022/10/19 06:37:44;;;;;;;7.68;2.13;;;10.00;99.90;;;;;;5071396;28;20492;-68
2022/10/19 06:40:10;;;;;;;5.85;1.23;;;10.00;99.90;;;;;;5067970;28;20045;-67
2022/10/19 06:42:39;;;;;;;22.88;3.55;;;10.00;99.90;;;;;;5053696;28;20135;-69
2022/10/19 06:45:06;;;;;;;8.73;1.83;;;10.00;99.90;;;;;;5069679;28;20044;-69
2022/10/19 06:47:33;;;;;;;6.10;1.38;;;10.00;99.90;;;;;;5073033;28;20410;-70
2022/10/19 06:49:59;;;;;;;9.45;1.40;;;10.00;99.90;;;;;;5072131;28;20044;-70
2022/10/19 06:52:25;;;;;;;5.28;1.30;;;10.10;99.90;;;;;;5072287;28;20719;-71
2022/10/19 06:54:51;;;;;;;7.45;1.60;;;10.10;99.90;;;;;;5071490;28;20094;-72
2022/10/19 06:57:16;;;;;;;6.15;1.60;;;10.00;99.90;;;;;;5073255;28;20382;-72
2022/10/19 06:59:42;;;;;;;4.43;1.33;;;10.10;99.90;;;;;;5072867;28;20147;-76
2022/10/19 07:02:10;;;;;;;8.32;1.48;;;10.10;99.90;;;;;;5072865;28;20041;-71
2022/10/19 07:04:36;;;;;;;6.05;1.40;;;10.20;99.90;;;;;;5071175;28;20078;-73
2022/10/19 07:07:02;;;;;;;8.55;1.33;;;10.20;99.90;;;;;;5052197;28;20581;-73
2022/10/19 07:09:27;;;;;;;;;;;10.20;99.90;;;;;;5050327;28;20041;-71
2022/10/19 07:11:53;;;;;;;5.78;1.02;;;10.30;99.90;;;;;;5057178;28;19931;-70
2022/10/19 07:14:19;;;;;;;17.27;2.38;;;10.40;99.90;;;;;;5073125;28;20355;-70
2022/10/19 07:16:44;;;;;;;9.30;1.98;;;10.30;99.90;;;;;;5072637;28;20044;-76
2022/10/19 07:19:12;;;;;;;6.78;1.52;;;10.50;99.90;;;;;;5056114;28;20045;-70
2022/10/19 07:21:40;;;;;;;2.60;1.33;;;10.50;99.90;;;;;;5066823;28;20048;-69
2022/10/19 07:24:06;;;;;;;6.40;1.40;;;10.60;99.90;;;;;;5063769;28;20498;-70
2022/10/19 07:26:32;;;;;;;5.45;1.30;;;10.60;99.90;;;;;;5069731;28;20126;-70
2022/10/19 07:28:58;;;;;;;8.32;1.48;;;10.70;99.90;;;;;;5068106;28;20048;-70
2022/10/19 07:31:25;;;;;;;;;;;10.80;99.90;;;;;;5069843;28;20052;-70
2022/10/19 07:33:53;;;;;;;8.93;1.35;;;10.80;99.90;;;;;;5069975;28;19928;-70
2022/10/19 07:36:18;;;;;;;8.82;1.77;;;10.90;99.90;;;;;;5059159;28;20037;-70
2022/10/19 07:38:44;;;;;;;9.40;1.88;;;10.90;99.90;;;;;;5062467;28;20041;-77
2022/10/19 07:41:14;;;;;;;7.03;1.95;;;11.00;99.90;;;;;;5065959;28;20060;-71
2022/10/19 07:43:40;;;;;;;5.60;1.40;;;11.10;99.90;;;;;;5064671;28;20124;-71
2022/10/19 07:46:15;;;;;;;7.95;1.52;;;11.20;99.90;;;;;;5057483;28;20045;-70
2022/10/19 07:48:42;;;;;;;6.30;2.03;;;11.20;99.90;;;;;;5063752;28;20504;-75
2022/10/19 07:51:09;;;;;;;6.07;2.10;;;11.30;99.90;;;;;;5065136;28;20074;-70
2022/10/19 07:53:35;;;;;;;8.10;1.75;;;11.40;99.90;;;;;;5067497;28;20041;-73
2022/10/19 07:56:06;;;;;;;8.35;1.63;;;11.40;99.90;;;;;;5064527;28;20044;-71
2022/10/19 07:58:33;;;;;;;9.38;1.48;;;11.50;99.90;;;;;;5060433;28;20052;-77
2022/10/19 08:01:11;;;;;;;8.88;1.73;;;11.60;99.90;;;;;;5062872;28;20506;-74
2022/10/19 08:03:37;;;;;;;11.38;1.83;;;11.70;99.90;;;;;;5070473;28;20063;-71
2022/10/19 08:06:04;;;;;;;;;;;11.80;99.90;;;;;;5065042;28;20041;-72
2022/10/19 08:08:30;;;;;;;6.47;1.30;;;11.80;99.90;;;;;;5065956;28;19950;-73
2022/10/19 08:10:56;;;;;;;;;;;11.90;99.90;;;;;;5059744;28;20059;-73
2022/10/19 08:13:22;;;;;;;3.83;1.35;;;12.00;99.90;;;;;;5065695;28;20366;-70
2022/10/19 08:15:47;;;;;;;9.48;1.52;;;12.00;99.90;;;;;;5060842;28;20052;-76
2022/10/19 08:18:13;;;;;;;6.50;1.50;;;12.10;99.90;;;;;;5067842;28;20542;-71
2022/10/19 08:20:43;;;;;;;8.00;1.33;;;12.20;99.90;;;;;;5069460;28;20354;-72
2022/10/19 08:23:09;;;;;;;6.03;2.13;;;12.20;99.90;;;;;;5066711;28;20040;-76
2022/10/19 08:25:36;;;;;;;8.52;1.20;;;12.30;99.90;;;;;;5066854;28;20049;-72
2022/10/19 08:28:02;;;;;;;11.07;1.83;;;12.40;99.90;;;;;;5061181;28;20052;-74
2022/10/19 08:30:27;;;;;;;;;;;12.40;99.90;;;;;;5064885;28;20056;-74
2022/10/19 08:32:53;;;;;;;13.23;2.55;;;12.50;99.90;;;;;;5066604;28;19978;-73
2022/10/19 08:35:19;;;;;;;4.22;1.20;;;12.50;99.90;;;;;;5069622;28;20049;-71
2022/10/19 08:37:44;;;;;;;7.07;1.30;;;12.60;99.90;;;;;;5068301;28;20477;-71
2022/10/19 08:40:31;;;;;;;7.78;1.52;;;12.60;99.90;;;;;;5061392;28;20045;-72
2022/10/19 08:43:09;;;;;;;14.02;2.28;;;12.70;99.90;;;;;;5066342;28;20060;-71
2022/10/19 08:45:47;;;;;;;10.07;2.17;;;12.80;99.90;;;;;;5063833;28;20040;-75
2022/10/19 08:48:31;;;;;;;10.98;1.70;;;12.90;99.90;;;;;;5064978;28;20053;-72
2022/10/19 08:50:59;;;;;;;9.90;1.63;;;12.90;99.90;;;;;;5056153;28;20090;-74
2022/10/19 08:53:51;;;;;;;6.35;1.63;;;12.90;99.90;;;;;;5057457;28;20124;-71
2022/10/19 08:56:28;;;;;;;5.20;1.08;;;13.00;99.90;;;;;;5050579;28;20067;-70
2022/10/19 08:58:56;;;;;;;6.65;1.55;;;13.10;99.90;;;;;;5050087;28;20165;-68
2022/10/19 09:01:28;;;;;;;3.80;1.17;;;13.20;99.90;;;;;;5050796;28;20662;-68
2022/10/19 09:04:02;;;;;;;5.53;1.20;;;13.20;99.90;;;;;;5063515;28;20044;-75
2022/10/19 09:06:47;;;;;;;4.97;1.10;;;13.20;99.90;;;;;;5050701;28;20401;-69
2022/10/19 09:09:13;;;;;;;5.07;1.33;;;13.20;99.90;;;;;;5047627;28;20064;-69
2022/10/19 09:11:45;;;;;;;7.68;2.30;;;13.30;99.90;;;;;;5053500;28;20064;-67
2022/10/19 09:14:54;;;;;;;5.38;1.10;;;13.30;99.90;;;;;;5058018;28;20097;-67
2022/10/19 09:17:20;;;;;;;4.70;1.25;;;13.40;99.90;;;;;;4988347;28;20523;-66
2022/10/19 09:19:46;;;;;;;7.82;1.45;;;13.40;99.90;;;;;;5040787;28;20053;-66
2022/10/19 09:22:28;;;;;;;5.60;1.50;;;13.40;99.90;;;;;;5067603;28;20044;-65
2022/10/19 09:25:04;;;;;;;10.10;1.38;;;13.50;99.90;;;;;;5047600;28;20049;-73
2022/10/19 09:27:43;;;;;;;5.07;1.35;;;13.60;99.90;;;;;;5050185;28;20041;-69
2022/10/19 09:30:17;;;;;;;7.38;1.42;;;13.60;99.90;;;;;;5049763;28;20128;-69
2022/10/19 09:32:43;;;;;;;9.10;1.95;;;13.60;99.90;;;;;;5050076;28;20083;-69
2022/10/19 09:35:43;;;;;;;7.43;1.52;;;13.60;99.90;;;;;;5048591;28;20473;-69
2022/10/19 09:38:11;;;;;;;7.80;1.30;;;13.70;99.90;;;;;;4995834;28;20557;-69
2022/10/19 09:40:36;;;;;;;4.22;1.20;;;13.70;99.90;;;;;;5052915;28;20055;-70
2022/10/19 09:43:19;;;;;;;4.13;1.30;;;13.70;99.90;;;;;;5049767;28;20417;-68
2022/10/19 09:46:01;;;;;;;4.47;1.48;;;13.70;99.90;;;;;;5050372;28;20056;-75
2022/10/19 09:48:49;;;;;;;8.57;1.20;;;13.70;99.90;;;;;;5057136;28;20052;-70
2022/10/19 09:51:16;;;;;;;4.97;1.42;;;13.70;99.90;;;;;;5069617;28;20126;-73
2022/10/19 09:53:53;;;;;;;5.47;1.17;;;13.70;99.90;;;;;;5068337;28;20046;-72
2022/10/19 09:56:26;;;;;;;6.60;1.27;;;13.70;99.90;;;;;;5068726;28;20084;-72
2022/10/19 09:58:57;;;;;;;3.70;1.27;;;13.80;99.90;;;;;;5069852;28;20048;-73
2022/10/19 10:01:39;;;;;;;3.55;1.13;;;13.90;99.90;;;;;;5070162;28;20059;-72
2022/10/19 10:04:06;;;;;;;7.15;1.25;;;13.90;99.90;;;;;;5069194;28;20056;-70
2022/10/19 10:06:33;;;;;;;6.85;1.25;;;14.00;99.90;;;;;;5070352;28;20049;-69
2022/10/19 10:08:59;;;;;;;3.38;1.10;;;14.10;99.90;;;;;;5062326;28;20395;-70
2022/10/19 10:11:31;;;;;;;4.53;0.90;;;14.20;99.90;;;;;;5066764;28;20044;-69
2022/10/19 10:14:03;;;;;;;5.90;1.80;;;14.20;99.90;;;;;;5069540;28;20543;-76
2022/10/19 10:16:31;;;;;;;5.32;1.65;;;14.20;99.90;;;;;;5069361;28;20053;-68
2022/10/19 10:19:06;;;;;;;3.58;1.88;;;14.30;99.90;;;;;;5068510;28;20120;-76
2022/10/19 10:21:35;;;;;;;4.78;1.20;;;14.30;99.90;;;;;;5070149;28;20199;-68
2022/10/19 10:24:09;;;;;;;8.27;1.38;;;14.30;99.90;;;;;;5047225;28;20060;-68
2022/10/19 10:26:43;;;;;;;4.88;1.35;;;14.40;99.90;;;;;;5059214;28;20060;-67
2022/10/19 10:29:26;;;;;;;6.00;1.25;;;14.40;99.90;;;;;;5069035;28;20052;-67
2022/10/19 10:32:10;;;;;;;3.17;1.25;;;14.60;99.90;;;;;;5069248;28;20041;-68
2022/10/19 10:34:42;;;;;;;4.20;1.40;;;14.80;99.90;;;;;;5069779;28;20113;-70
2022/10/19 10:37:37;;;;;;;5.13;1.10;;;14.90;99.90;;;;;;5071155;28;20036;-71
2022/10/19 10:40:04;;;;;;;4.78;0.98;;;15.00;99.90;;;;;;5071269;28;20057;-68
2022/10/19 10:42:40;;;;;;;9.50;1.70;;;15.00;99.90;;;;;;5072929;28;20086;-70
2022/10/19 10:45:21;;;;;;;8.57;2.75;;;15.10;99.90;;;;;;5054164;28;20106;-71
2022/10/19 10:47:47;;;;;;;4.13;1.33;;;15.10;99.90;;;;;;5064536;28;20044;-69
2022/10/19 10:50:22;;;;;;;5.47;1.30;;;15.20;99.90;;;;;;5064431;28;20097;-71
2022/10/19 10:53:00;;;;;;;4.07;1.33;;;15.20;99.90;;;;;;5071848;28;20398;-70
2022/10/19 10:55:27;;;;;;;5.68;1.50;;;15.20;99.90;;;;;;5068331;28;20124;-68
2022/10/19 10:58:14;;;;;;;4.40;1.00;;;15.10;99.90;;;;;;5072019;28;20052;-68
2022/10/19 11:00:41;;;;;;;8.95;1.00;;;15.20;99.90;;;;;;5072068;28;20094;-73
2022/10/19 11:03:19;;;;;;;5.38;1.10;;;15.10;99.90;;;;;;5070060;28;20125;-69
2022/10/19 11:05:57;;;;;;;6.22;1.33;;;15.10;99.90;;;;;;5062728;28;20075;-69
2022/10/19 11:09:04;;;;;;;7.15;1.35;;;15.10;99.90;;;;;;5068589;28;20047;-69
2022/10/19 11:11:43;;;;;;;5.90;1.20;;;15.30;99.90;;;;;;5062858;28;20601;-69
2022/10/19 11:14:28;;;;;;;5.07;1.60;;;15.40;99.90;;;;;;5070533;28;20040;-70
2022/10/19 11:16:58;;;;;;;3.47;0.90;;;15.50;99.90;;;;;;5070795;28;20044;-73
2022/10/19 11:19:31;;;;;;;2.55;0.73;;;15.70;99.90;;;;;;5069145;28;20056;-71
2022/10/19 11:22:28;;;;;;;4.70;0.82;;;15.60;99.90;;;;;;5071297;28;20474;-70
2022/10/19 11:25:17;;;;;;;4.72;1.08;;;15.40;99.90;;;;;;5054716;28;20087;-72
2022/10/19 11:28:22;;;;;;;2.92;1.00;;;15.40;99.90;;;;;;5064786;28;20055;-74
2022/10/19 11:31:12;;;;;;;5.50;1.10;;;15.60;99.90;;;;;;5067646;28;20052;-72
2022/10/19 11:34:00;;;;;;;7.90;1.30;;;15.80;99.90;;;;;;5070848;28;20056;-77
2022/10/19 11:36:56;;;;;;;4.32;1.10;;;15.90;99.90;;;;;;5064741;28;20174;-74
2022/10/19 11:39:40;;;;;;;8.85;1.30;;;16.30;99.90;;;;;;5051210;28;20049;-72
2022/10/19 11:42:36;;;;;;;5.97;1.42;;;16.90;99.90;;;;;;5051863;28;20148;-74
2022/10/19 11:45:18;;;;;;;3.33;1.30;;;17.50;99.90;;;;;;5052085;28;20047;-72
2022/10/19 11:47:58;;;;;;;13.15;2.65;;;18.40;99.90;;;;;;5051015;28;20147;-67
2022/10/19 11:50:42;;;;;;;3.75;1.10;;;19.20;99.90;;;;;;5098112;28;20040;-70
2022/10/19 11:53:11;;;;;;;5.20;1.10;;;19.40;96.40;;;;;;5057855;28;20052;-67
2022/10/19 11:56:01;;;;;;;5.68;1.48;;;19.10;98.20;;;;;;5071571;28;20048;-67
2022/10/19 11:59:02;;;;;;;3.17;1.00;;;18.80;94.60;;;;;;5056913;28;20053;-71
2022/10/19 12:01:43;;;;;;;6.03;1.30;;;19.10;96.70;;;;;;5062266;28;20048;-71
2022/10/19 12:04:32;;;;;;;5.03;1.27;;;19.30;94.20;;;;;;5052206;28;20076;-73
2022/10/19 12:07:17;;;;;;;7.32;1.35;;;18.70;92.20;;;;;;5065848;28;20087;-75
2022/10/19 12:09:50;;;;;;;3.95;1.20;;;18.10;94.30;;;;;;5093652;28;20064;-74
2022/10/19 12:12:37;;;;;;;4.65;1.50;;;17.70;96.50;;;;;;5052938;28;20510;-72
2022/10/19 12:15:27;;;;;;;6.63;1.25;;;17.80;95.60;;;;;;5062172;28;20433;-74
2022/10/19 12:17:58;;;;;;;6.00;1.50;;;17.90;95.30;;;;;;5056114;28;20048;-69
2022/10/19 12:20:41;;;;;;;5.50;1.60;;;17.70;95.50;;;;;;5062975;28;20049;-66
2022/10/19 12:23:25;;;;;;;6.53;1.48;;;17.70;95.80;;;;;;5068905;28;20087;-69
2022/10/19 12:25:53;;;;;;;4.38;1.30;;;18.20;94.10;;;;;;5059713;28;20087;-67
2022/10/19 12:28:31;;;;;;;4.72;1.45;;;18.60;95.70;;;;;;5070476;28;20482;-67
2022/10/19 12:30:58;;;;;;;7.60;1.73;;;18.80;92.00;;;;;;5054757;28;20056;-68
2022/10/19 12:33:30;;;;;;;2.92;1.13;;;18.80;93.40;;;;;;5053949;28;20340;-67
2022/10/19 12:36:21;;;;;;;7.20;1.88;;;18.70;92.00;;;;;;5051215;28;20053;-67
2022/10/19 12:38:52;;;;;;;2.95;1.25;;;18.80;91.10;;;;;;5049523;28;20056;-68
2022/10/19 12:41:43;;;;;;;5.03;1.58;;;18.70;92.30;;;;;;5067376;28;20050;-68
2022/10/19 12:44:15;;;;;;;7.80;1.45;;;18.70;87.80;;;;;;5070950;28;20048;-73
2022/10/19 12:46:45;;;;;;;7.10;1.35;;;18.90;91.20;;;;;;5053967;28;20409;-68
2022/10/19 12:49:25;;;;;;;2.22;1.00;;;19.00;91.20;;;;;;5069986;28;20052;-69
2022/10/19 12:51:53;;;;;;;5.20;1.13;;;19.20;90.20;;;;;;5071115;28;20045;-68
2022/10/19 12:54:27;;;;;;;4.65;1.20;;;19.30;91.00;;;;;;5067450;28;20110;-68
2022/10/19 12:56:55;;;;;;;4.20;1.10;;;19.40;88.90;;;;;;5071014;28;20052;-69
2022/10/19 12:59:24;;;;;;;7.18;1.38;;;19.40;89.40;;;;;;5070237;28;20340;-67
2022/10/19 13:01:51;;;;;;;7.82;1.27;;;19.10;88.50;;;;;;5071128;28;20048;-67
2022/10/19 13:04:21;;;;;;;7.43;1.45;;;18.90;88.40;;;;;;5069885;28;20047;-67
2022/10/19 13:06:55;;;;;;;5.22;1.30;;;18.80;88.00;;;;;;5071082;28;20048;-67
2022/10/19 13:09:36;;;;;;;5.53;1.58;;;18.80;87.10;;;;;;5067262;28;20049;-68
2022/10/19 13:12:14;;;;;;;6.28;1.40;;;18.90;87.70;;;;;;5061083;28;20052;-66
2022/10/19 13:14:44;;;;;;;5.28;1.63;;;19.00;82.60;;;;;;5070840;28;20055;-68